Time;durP1;ratioP1;P1;durP2;ratioP2;P2;SDS_P1;SDS_P2;PMS_P1;PMS_P2;Temp;Humidity;BMP_temperature;BMP_pressure;BME280_temperature;BME280_humidity;BME280_pressure;Samples;Min_cycle;Max_cycle;Signal;HPM_P1;HPM_P2
2021/01/31 00:01:43;;;;;;;6.00;5.50;;;4.60;99.90;;;;;;5033915;28;20244;-56
2021/01/31 00:04:10;;;;;;;5.93;5.43;;;4.60;99.90;;;;;;5033976;28;20246;-52
2021/01/31 00:06:37;;;;;;;5.50;5.10;;;4.60;99.90;;;;;;5033965;28;20227;-51
2021/01/31 00:09:04;;;;;;;6.50;5.90;;;4.60;99.90;;;;;;5033642;28;20212;-53
2021/01/31 00:11:32;;;;;;;6.60;6.10;;;4.60;99.90;;;;;;5033212;28;20201;-53
2021/01/31 00:14:03;;;;;;;7.90;5.97;;;4.60;99.90;;;;;;5033917;28;20324;-54
2021/01/31 00:16:30;;;;;;;6.53;5.93;;;4.60;99.90;;;;;;5033689;28;20595;-55
2021/01/31 00:18:57;;;;;;;5.97;5.47;;;4.50;99.90;;;;;;5033694;28;20643;-56
2021/01/31 00:21:25;;;;;;;6.83;6.23;;;4.60;99.90;;;;;;5033487;28;20691;-56
2021/01/31 00:23:52;;;;;;;6.90;6.40;;;4.60;99.90;;;;;;5033476;28;20213;-54
2021/01/31 00:26:19;;;;;;;6.80;6.07;;;4.60;99.90;;;;;;5033494;28;20209;-55
2021/01/31 00:28:47;;;;;;;6.80;6.20;;;4.60;99.90;;;;;;5033541;28;20308;-57
2021/01/31 00:31:14;;;;;;;6.50;6.00;;;4.60;99.90;;;;;;5033475;28;20303;-57
2021/01/31 00:33:41;;;;;;;6.80;6.30;;;4.70;99.90;;;;;;5033379;28;20307;-56
2021/01/31 00:36:08;;;;;;;6.50;5.97;;;4.70;99.90;;;;;;5033591;28;20247;-52
2021/01/31 00:38:35;;;;;;;6.87;6.33;;;4.70;99.90;;;;;;5033375;28;20295;-54
2021/01/31 00:41:02;;;;;;;6.13;5.53;;;4.70;99.90;;;;;;5033258;28;20229;-55
2021/01/31 00:43:29;;;;;;;5.90;5.40;;;4.60;99.90;;;;;;5033339;28;20331;-51
2021/01/31 00:45:57;;;;;;;6.93;6.33;;;4.60;99.90;;;;;;5033237;28;20751;-55
2021/01/31 00:48:25;;;;;;;6.50;6.00;;;4.50;99.90;;;;;;5033290;28;20208;-50
2021/01/31 00:50:52;;;;;;;7.10;6.40;;;4.50;99.90;;;;;;5033397;28;20238;-56
2021/01/31 00:53:19;;;;;;;7.23;6.63;;;4.40;99.90;;;;;;5032989;28;20208;-52
2021/01/31 00:55:46;;;;;;;6.67;6.07;;;4.40;99.90;;;;;;5032917;28;20288;-55
2021/01/31 00:58:13;;;;;;;6.93;6.33;;;4.40;99.90;;;;;;5032874;28;20209;-55
2021/01/31 01:00:40;;;;;;;7.57;6.87;;;4.30;99.90;;;;;;5032452;28;20656;-55
2021/01/31 01:03:09;;;;;;;6.97;6.37;;;4.40;99.90;;;;;;5032729;28;20240;-55
2021/01/31 01:05:36;;;;;;;7.77;7.07;;;4.40;99.90;;;;;;5032839;28;20266;-53
2021/01/31 01:08:04;;;;;;;7.13;6.53;;;4.50;99.90;;;;;;5032708;28;20212;-54
2021/01/31 01:10:33;;;;;;;7.90;7.20;;;4.50;99.90;;;;;;5032692;28;20223;-54
2021/01/31 01:13:01;;;;;;;7.83;7.13;;;4.50;99.90;;;;;;5032439;28;20709;-52
2021/01/31 01:15:29;;;;;;;7.30;6.70;;;4.50;99.90;;;;;;5032341;28;20647;-56
2021/01/31 01:17:56;;;;;;;7.18;6.57;;;4.40;99.90;;;;;;5032385;28;20582;-51
2021/01/31 01:20:25;;;;;;;6.90;6.30;;;4.40;99.90;;;;;;5032716;28;20541;-57
2021/01/31 01:22:53;;;;;;;6.67;6.07;;;4.40;99.90;;;;;;5032121;28;20216;-56
2021/01/31 01:25:22;;;;;;;7.87;7.17;;;4.40;99.90;;;;;;5032524;28;20226;-56
2021/01/31 01:27:49;;;;;;;7.28;6.57;;;4.40;99.90;;;;;;5032265;28;20219;-53
2021/01/31 01:30:19;;;;;;;7.40;6.70;;;4.40;99.90;;;;;;5032599;28;20208;-51
2021/01/31 01:32:49;;;;;;;7.33;6.73;;;4.40;99.90;;;;;;5032465;28;20208;-50
2021/01/31 01:35:16;;;;;;;7.83;7.13;;;4.50;99.90;;;;;;5032821;28;20543;-52
2021/01/31 01:37:46;;;;;;;8.17;7.10;;;4.40;99.90;;;;;;5032152;28;20219;-55
2021/01/31 01:40:18;;;;;;;7.50;6.90;;;4.40;99.90;;;;;;5032188;28;20537;-52
2021/01/31 01:42:45;;;;;;;7.23;6.53;;;4.40;99.90;;;;;;5032385;28;20382;-54
2021/01/31 01:45:13;;;;;;;7.70;7.00;;;4.40;99.90;;;;;;5031809;28;20267;-53
2021/01/31 01:47:40;;;;;;;7.60;7.00;;;4.40;99.90;;;;;;5032223;28;20295;-54
2021/01/31 01:50:26;;;;;;;7.80;7.03;;;4.40;99.90;;;;;;5032123;28;20654;-56
2021/01/31 01:52:58;;;;;;;6.87;6.27;;;4.30;99.90;;;;;;5032079;28;20230;-59
2021/01/31 01:55:29;;;;;;;7.07;6.47;;;4.30;99.90;;;;;;5032394;28;20292;-57
2021/01/31 01:57:59;;;;;;;7.50;6.80;;;4.30;99.90;;;;;;5032093;28;20742;-57
2021/01/31 02:00:27;;;;;;;7.40;6.70;;;4.30;99.90;;;;;;5032073;28;20224;-57
2021/01/31 02:02:59;;;;;;;8.00;7.23;;;4.30;99.90;;;;;;5032469;28;20220;-59
2021/01/31 02:05:27;;;;;;;8.63;7.33;;;4.30;99.90;;;;;;5031813;28;20258;-54
2021/01/31 02:07:55;;;;;;;7.17;6.53;;;4.30;99.90;;;;;;5031993;28;20753;-58
2021/01/31 02:10:25;;;;;;;7.63;7.03;;;4.30;99.90;;;;;;5032112;28;20300;-55
2021/01/31 02:12:57;;;;;;;7.57;6.90;;;4.30;99.90;;;;;;5032032;28;20208;-57
2021/01/31 02:15:25;;;;;;;7.10;6.43;;;4.30;99.90;;;;;;5031956;28;20311;-54
2021/01/31 02:18:03;;;;;;;7.43;6.83;;;4.30;99.90;;;;;;5031608;28;20254;-52
2021/01/31 02:20:56;;;;;;;7.90;7.10;;;4.20;99.90;;;;;;5031876;28;20315;-53
2021/01/31 02:23:59;;;;;;;7.90;7.10;;;4.20;99.90;;;;;;5031833;28;20204;-53
2021/01/31 02:27:00;;;;;;;13.97;8.23;;;4.20;99.90;;;;;;5031662;28;20239;-51
2021/01/31 02:30:03;;;;;;;7.80;7.10;;;4.20;99.90;;;;;;5031876;28;20212;-56
2021/01/31 02:33:11;;;;;;;10.63;8.02;;;4.30;99.90;;;;;;5031487;28;20303;-53
2021/01/31 02:35:45;;;;;;;7.90;6.93;;;4.30;99.90;;;;;;5035622;28;20204;-56
2021/01/31 02:38:18;;;;;;;8.63;7.47;;;4.30;99.90;;;;;;5035619;28;20204;-51
2021/01/31 02:40:55;;;;;;;7.55;6.82;;;4.20;99.90;;;;;;5035458;28;20271;-56
2021/01/31 02:43:37;;;;;;;6.53;6.00;;;4.20;99.90;;;;;;5035630;28;20363;-49
2021/01/31 02:46:12;;;;;;;6.70;6.10;;;4.20;99.90;;;;;;5035580;28;20231;-55
2021/01/31 02:48:43;;;;;;;7.90;7.20;;;4.20;99.90;;;;;;5035192;28;20736;-56
2021/01/31 02:51:16;;;;;;;6.93;6.33;;;4.10;99.90;;;;;;5035427;28;20205;-54
2021/01/31 02:53:51;;;;;;;6.70;6.10;;;4.20;99.90;;;;;;5035207;28;20299;-54
2021/01/31 02:56:25;;;;;;;6.73;6.10;;;4.20;99.90;;;;;;5035425;28;20299;-53
2021/01/31 02:58:56;;;;;;;7.70;6.23;;;4.20;99.90;;;;;;5035179;28;20391;-53
2021/01/31 03:01:29;;;;;;;6.07;5.57;;;4.20;99.90;;;;;;5034964;28;20559;-58
2021/01/31 03:04:00;;;;;;;6.17;5.63;;;4.20;99.90;;;;;;5035119;28;20701;-56
2021/01/31 03:06:32;;;;;;;5.80;5.20;;;4.20;99.90;;;;;;5034925;28;20664;-58
2021/01/31 03:09:05;;;;;;;5.13;4.73;;;4.30;99.90;;;;;;5034849;28;20204;-58
2021/01/31 03:11:36;;;;;;;5.73;5.30;;;4.30;99.90;;;;;;5035082;28;20636;-54
2021/01/31 03:14:06;;;;;;;5.07;4.57;;;4.30;99.90;;;;;;5034820;28;20307;-52
2021/01/31 03:16:38;;;;;;;5.00;4.57;;;4.20;99.90;;;;;;5035166;28;20205;-54
2021/01/31 03:19:08;;;;;;;5.40;4.90;;;4.20;99.90;;;;;;5034983;28;20208;-53
2021/01/31 03:21:39;;;;;;;5.13;4.73;;;4.20;99.90;;;;;;5034753;28;20278;-54
2021/01/31 03:24:12;;;;;;;5.27;4.60;;;4.20;99.90;;;;;;5034668;28;20754;-56
2021/01/31 03:26:45;;;;;;;4.80;4.40;;;4.30;99.90;;;;;;5034707;28;20552;-50
2021/01/31 03:29:12;;;;;;;4.97;4.57;;;4.40;99.90;;;;;;5034806;28;20295;-54
2021/01/31 03:31:45;;;;;;;4.90;4.50;;;4.40;99.90;;;;;;5034685;28;20299;-51
2021/01/31 03:34:18;;;;;;;5.33;4.87;;;4.30;99.90;;;;;;5034664;28;20208;-53
2021/01/31 03:36:52;;;;;;;6.67;5.30;;;4.30;99.90;;;;;;5034640;28;20238;-51
2021/01/31 03:39:20;;;;;;;4.87;4.50;;;4.30;99.90;;;;;;5034527;28;20213;-51
2021/01/31 03:41:47;;;;;;;5.67;5.10;;;4.30;99.90;;;;;;5034613;28;20228;-51
2021/01/31 03:44:15;;;;;;;5.43;4.93;;;4.30;99.90;;;;;;5034076;28;20768;-53
2021/01/31 03:46:49;;;;;;;6.73;6.13;;;4.20;99.90;;;;;;5034364;28;20209;-52
2021/01/31 03:49:22;;;;;;;6.03;5.53;;;4.10;99.90;;;;;;5034339;28;20578;-55
2021/01/31 03:51:50;;;;;;;6.90;6.30;;;4.20;99.90;;;;;;5034547;28;20188;-52
2021/01/31 03:54:17;;;;;;;6.63;5.97;;;4.10;99.90;;;;;;5034811;28;20209;-57
2021/01/31 03:56:50;;;;;;;6.83;6.23;;;4.10;99.90;;;;;;5034315;28;20216;-56
2021/01/31 03:59:20;;;;;;;6.73;6.20;;;4.00;99.90;;;;;;5034294;28;20308;-53
2021/01/31 04:01:50;;;;;;;6.53;5.93;;;4.00;99.90;;;;;;5033980;28;20264;-49
2021/01/31 04:04:20;;;;;;;7.77;7.17;;;3.90;99.90;;;;;;5033828;28;20702;-50
2021/01/31 04:06:53;;;;;;;8.43;7.63;;;3.90;99.90;;;;;;5034097;28;20205;-51
2021/01/31 04:09:22;;;;;;;8.37;7.67;;;3.80;99.90;;;;;;5033926;28;20676;-48
2021/01/31 04:11:59;;;;;;;7.77;6.97;;;3.80;99.90;;;;;;5034305;28;20296;-56
2021/01/31 04:14:33;;;;;;;8.40;7.53;;;3.80;99.90;;;;;;5033703;28;20208;-54
2021/01/31 04:17:01;;;;;;;7.10;6.50;;;3.80;99.90;;;;;;5033975;28;20219;-54
2021/01/31 04:19:28;;;;;;;7.90;7.30;;;3.80;99.90;;;;;;5033592;28;20399;-55
2021/01/31 04:21:55;;;;;;;8.17;7.47;;;3.90;99.90;;;;;;5033572;28;20232;-52
2021/01/31 04:24:22;;;;;;;8.37;7.67;;;3.90;99.90;;;;;;5033711;28;20239;-54
2021/01/31 04:26:49;;;;;;;8.93;8.13;;;3.80;99.90;;;;;;5033607;28;20205;-55
2021/01/31 04:29:17;;;;;;;9.30;8.50;;;3.80;99.90;;;;;;5033731;28;20243;-58
2021/01/31 04:31:44;;;;;;;8.47;7.67;;;3.80;99.90;;;;;;5033466;28;20300;-58
2021/01/31 04:34:11;;;;;;;8.97;8.17;;;3.80;99.90;;;;;;5033665;28;20287;-55
2021/01/31 04:36:38;;;;;;;9.13;8.27;;;3.70;99.90;;;;;;5033454;28;20288;-57
2021/01/31 04:39:06;;;;;;;9.33;8.43;;;3.70;99.90;;;;;;5033448;28;20297;-59
2021/01/31 04:41:38;;;;;;;8.77;7.97;;;3.70;99.90;;;;;;5033284;28;20256;-59
2021/01/31 04:44:08;;;;;;;8.87;8.07;;;3.70;99.90;;;;;;5033303;28;20472;-56
2021/01/31 04:46:43;;;;;;;10.10;9.20;;;3.70;99.90;;;;;;5033264;28;20678;-57
2021/01/31 04:49:19;;;;;;;9.63;8.73;;;3.70;99.90;;;;;;5033253;28;20218;-58
2021/01/31 04:52:11;;;;;;;9.87;9.07;;;3.70;99.90;;;;;;5033124;28;20284;-58
2021/01/31 04:54:54;;;;;;;9.10;8.20;;;3.70;99.90;;;;;;5029240;28;20212;-54
2021/01/31 04:57:29;;;;;;;10.07;9.10;;;3.60;99.90;;;;;;5032660;28;20300;-58
2021/01/31 04:59:58;;;;;;;9.83;8.93;;;3.60;99.90;;;;;;5033079;28;20208;-58
2021/01/31 05:02:32;;;;;;;10.40;9.40;;;3.70;99.90;;;;;;5032590;28;20323;-57
2021/01/31 05:05:01;;;;;;;9.83;8.83;;;3.70;99.90;;;;;;5032921;28;20295;-55
2021/01/31 05:07:35;;;;;;;10.40;9.50;;;3.60;99.90;;;;;;5032730;28;20598;-57
2021/01/31 05:10:04;;;;;;;9.20;8.30;;;3.60;99.90;;;;;;5032818;28;20300;-55
2021/01/31 05:12:37;;;;;;;9.63;8.73;;;3.60;99.90;;;;;;5032755;28;20299;-53
2021/01/31 05:15:15;;;;;;;11.02;9.85;;;3.60;99.90;;;;;;5032662;28;20289;-53
2021/01/31 05:17:46;;;;;;;10.20;9.27;;;3.70;99.90;;;;;;5032909;28;20215;-51
2021/01/31 05:20:15;;;;;;;9.77;8.90;;;3.70;99.90;;;;;;5032793;28;20557;-56
2021/01/31 05:22:47;;;;;;;10.80;9.70;;;3.60;99.90;;;;;;5032614;28;20229;-59
2021/01/31 05:25:20;;;;;;;9.55;8.75;;;3.60;99.90;;;;;;5032449;28;20659;-60
2021/01/31 05:27:49;;;;;;;10.43;9.33;;;3.60;99.90;;;;;;5032464;28;20693;-56
2021/01/31 05:30:17;;;;;;;10.30;9.27;;;3.60;99.90;;;;;;5033074;28;20212;-58
2021/01/31 05:33:04;;;;;;;10.45;9.50;;;3.60;99.90;;;;;;5032455;28;20715;-58
2021/01/31 05:35:33;;;;;;;10.50;9.50;;;3.70;99.90;;;;;;5032277;28;20274;-59
2021/01/31 05:38:00;;;;;;;10.17;9.27;;;3.70;99.90;;;;;;5032153;28;20258;-50
2021/01/31 05:40:34;;;;;;;10.03;9.13;;;3.70;99.90;;;;;;5032575;28;20295;-51
2021/01/31 05:43:02;;;;;;;9.83;8.90;;;3.70;99.90;;;;;;5032226;28;20623;-55
2021/01/31 05:45:34;;;;;;;10.70;9.70;;;3.60;99.90;;;;;;5032157;28;20235;-54
2021/01/31 05:48:14;;;;;;;10.67;9.67;;;3.60;99.90;;;;;;5032143;28;20304;-55
2021/01/31 05:50:43;;;;;;;10.13;9.13;;;3.60;99.90;;;;;;5032231;28;20220;-55
2021/01/31 05:53:28;;;;;;;11.10;9.97;;;3.60;99.90;;;;;;5032126;28;20623;-56
2021/01/31 05:56:14;;;;;;;10.70;9.70;;;3.60;99.90;;;;;;5032108;28;20296;-54
2021/01/31 05:58:41;;;;;;;11.00;10.00;;;3.60;99.90;;;;;;5032217;28;20213;-54
2021/01/31 06:01:10;;;;;;;11.13;10.13;;;3.60;99.90;;;;;;5032008;28;20228;-58
2021/01/31 06:03:38;;;;;;;10.60;9.67;;;3.50;99.90;;;;;;5032040;28;20395;-59
2021/01/31 06:06:22;;;;;;;11.63;10.53;;;3.40;99.90;;;;;;5032040;28;20248;-56
2021/01/31 06:08:51;;;;;;;11.53;10.43;;;3.50;99.90;;;;;;5034085;28;20324;-59
2021/01/31 06:11:25;;;;;;;11.63;10.53;;;3.30;99.90;;;;;;5035961;28;20610;-52
2021/01/31 06:14:04;;;;;;;12.43;11.20;;;3.20;99.90;;;;;;5036216;28;20298;-55
2021/01/31 06:16:31;;;;;;;12.77;11.57;;;3.10;99.90;;;;;;5036046;28;20307;-57
2021/01/31 06:19:04;;;;;;;12.73;11.53;;;3.10;99.90;;;;;;5035918;28;20236;-56
2021/01/31 06:21:38;;;;;;;13.53;12.13;;;3.10;99.90;;;;;;5035905;28;20354;-52
2021/01/31 06:24:20;;;;;;;14.17;11.83;;;3.00;99.90;;;;;;5035855;28;20702;-55
2021/01/31 06:26:48;;;;;;;11.50;10.50;;;3.00;99.90;;;;;;5035603;28;20255;-56
2021/01/31 06:29:21;;;;;;;13.63;10.93;;;3.00;99.90;;;;;;5035813;28;20227;-54
2021/01/31 06:31:53;;;;;;;12.57;11.37;;;2.90;99.90;;;;;;5035602;28;20315;-51
2021/01/31 06:34:20;;;;;;;12.77;11.43;;;2.90;99.90;;;;;;5035796;28;20197;-55
2021/01/31 06:37:11;;;;;;;13.70;11.43;;;2.90;99.90;;;;;;5035637;28;20211;-55
2021/01/31 06:39:57;;;;;;;13.53;12.13;;;2.90;99.90;;;;;;5035527;28;20205;-54
2021/01/31 06:42:36;;;;;;;12.83;11.53;;;2.90;99.90;;;;;;5035330;28;20256;-53
2021/01/31 06:45:12;;;;;;;14.53;12.67;;;2.90;99.90;;;;;;5035169;28;20327;-53
2021/01/31 06:47:55;;;;;;;13.50;12.03;;;2.90;99.90;;;;;;5035236;28;20299;-54
2021/01/31 06:50:27;;;;;;;12.70;11.40;;;3.00;99.90;;;;;;5035376;28;20241;-54
2021/01/31 06:53:03;;;;;;;13.87;12.37;;;3.00;99.90;;;;;;5035819;28;20273;-57
2021/01/31 06:56:07;;;;;;;15.13;11.93;;;2.90;99.90;;;;;;5035469;28;20687;-55
2021/01/31 06:58:48;;;;;;;12.97;11.47;;;2.90;99.90;;;;;;5035386;28;20204;-54
2021/01/31 07:01:29;;;;;;;13.23;11.73;;;2.80;99.90;;;;;;5035019;28;20271;-53
2021/01/31 07:04:17;;;;;;;13.80;12.07;;;2.60;99.90;;;;;;5034961;28;20251;-53
2021/01/31 07:07:06;;;;;;;14.47;12.27;;;2.50;99.90;;;;;;5035049;28;20725;-54
2021/01/31 07:09:50;;;;;;;14.77;12.37;;;2.50;99.90;;;;;;5034928;28;20272;-53
2021/01/31 07:12:24;;;;;;;15.77;12.23;;;2.60;99.90;;;;;;5035136;28;20648;-54
2021/01/31 07:17:39;;;;;;;15.73;13.10;;;2.70;99.90;;;;;;4974926;28;20302;-57
2021/01/31 07:20:14;;;;;;;15.10;13.23;;;2.70;99.90;;;;;;4975453;28;20215;-54
2021/01/31 07:22:45;;;;;;;20.17;13.27;;;2.70;99.90;;;;;;4976237;28;20620;-56
2021/01/31 07:25:20;;;;;;;19.37;14.37;;;2.70;99.90;;;;;;4976027;28;20245;-58
2021/01/31 07:27:54;;;;;;;14.67;12.40;;;2.80;99.90;;;;;;4976282;28;20214;-58
2021/01/31 07:30:24;;;;;;;14.60;12.43;;;2.80;99.90;;;;;;4975764;28;20626;-61
2021/01/31 07:33:13;;;;;;;15.27;12.73;;;2.90;99.90;;;;;;4975533;28;20270;-62
2021/01/31 07:35:54;;;;;;;16.07;12.80;;;3.00;99.90;;;;;;4976017;28;20214;-62
2021/01/31 07:38:26;;;;;;;21.83;14.37;;;3.00;99.90;;;;;;4975884;28;20601;-59
2021/01/31 07:40:55;;;;;;;15.70;13.60;;;3.00;99.90;;;;;;4976294;28;20635;-60
2021/01/31 07:43:26;;;;;;;16.67;14.10;;;3.00;99.90;;;;;;4976042;28;20207;-59
2021/01/31 07:46:02;;;;;;;16.63;14.00;;;2.90;99.90;;;;;;4975951;28;20217;-56
2021/01/31 07:48:39;;;;;;;16.53;14.17;;;2.80;99.90;;;;;;4975399;28;20210;-58
2021/01/31 07:51:08;;;;;;;17.10;13.93;;;2.60;99.90;;;;;;4975242;28;20217;-55
2021/01/31 07:53:37;;;;;;;16.90;14.43;;;2.60;99.90;;;;;;4975315;28;20219;-57
2021/01/31 07:56:28;;;;;;;18.90;14.53;;;2.60;99.90;;;;;;4975066;28;20310;-60
2021/01/31 07:58:57;;;;;;;16.13;13.17;;;2.70;99.90;;;;;;4975242;28;20301;-62
2021/01/31 08:01:48;;;;;;;15.90;13.47;;;2.80;99.90;;;;;;4975018;28;20258;-56
2021/01/31 08:04:26;;;;;;;14.97;13.37;;;2.80;99.90;;;;;;4975394;28;20217;-58
2021/01/31 08:06:57;;;;;;;15.13;13.60;;;2.80;99.90;;;;;;4975117;28;20274;-56
2021/01/31 08:09:53;;;;;;;14.90;13.03;;;2.90;99.90;;;;;;4975078;28;20246;-56
2021/01/31 08:12:20;;;;;;;16.70;13.63;;;3.00;99.90;;;;;;4974911;28;20297;-55
2021/01/31 08:15:11;;;;;;;15.30;12.67;;;3.10;99.90;;;;;;4974950;28;20298;-55
2021/01/31 08:18:07;;;;;;;17.87;13.10;;;3.20;99.90;;;;;;4974701;28;20277;-53
2021/01/31 08:20:41;;;;;;;15.67;13.07;;;3.20;99.90;;;;;;4974680;28;20211;-53
2021/01/31 08:23:52;;;;;;;14.10;12.17;;;3.30;99.90;;;;;;4974636;28;20786;-49
2021/01/31 08:26:48;;;;;;;16.23;12.10;;;3.30;99.90;;;;;;4974671;28;20250;-52
2021/01/31 08:29:33;;;;;;;15.73;11.57;;;3.30;99.90;;;;;;4974397;28;20211;-54
2021/01/31 08:32:13;;;;;;;15.23;12.13;;;3.30;99.90;;;;;;4973629;28;20264;-55
2021/01/31 08:35:25;;;;;;;15.43;12.57;;;3.30;99.90;;;;;;4974494;28;20632;-53
2021/01/31 08:38:13;;;;;;;12.97;11.40;;;3.20;99.90;;;;;;4974427;28;20225;-53
2021/01/31 08:40:41;;;;;;;13.77;11.90;;;3.20;99.90;;;;;;4974255;28;20230;-58
2021/01/31 08:43:10;;;;;;;15.27;11.93;;;3.20;99.90;;;;;;4974166;28;20753;-56
2021/01/31 08:45:40;;;;;;;16.90;12.50;;;3.30;99.90;;;;;;4974326;28;20211;-51
2021/01/31 08:48:07;;;;;;;15.43;12.40;;;3.30;99.90;;;;;;4974063;28;20262;-56
2021/01/31 08:50:34;;;;;;;13.50;11.07;;;3.30;99.90;;;;;;4974206;28;20219;-56
2021/01/31 08:53:03;;;;;;;14.30;12.67;;;3.30;99.90;;;;;;4974134;28;20298;-56
2021/01/31 08:55:31;;;;;;;14.67;13.07;;;3.30;99.90;;;;;;4974039;28;20244;-58
2021/01/31 08:58:02;;;;;;;18.40;13.20;;;3.20;99.90;;;;;;4973927;28;20574;-56
2021/01/31 09:00:30;;;;;;;19.27;13.23;;;3.10;99.90;;;;;;4973973;28;20241;-55
2021/01/31 09:02:58;;;;;;;15.20;12.33;;;3.10;99.90;;;;;;4974048;28;20665;-54
2021/01/31 09:05:26;;;;;;;15.77;12.60;;;3.10;99.90;;;;;;4974135;28;20294;-56
2021/01/31 09:08:01;;;;;;;16.43;13.07;;;3.20;99.90;;;;;;4973933;28;20211;-54
2021/01/31 09:10:40;;;;;;;17.50;12.53;;;3.20;99.90;;;;;;4973491;28;20264;-56
2021/01/31 09:13:09;;;;;;;14.53;12.30;;;3.30;99.90;;;;;;4974107;28;20207;-53
2021/01/31 09:15:37;;;;;;;17.08;13.30;;;3.30;99.90;;;;;;4973736;28;20297;-56
2021/01/31 09:18:10;;;;;;;17.83;12.73;;;3.20;99.90;;;;;;4973966;28;20234;-56
2021/01/31 09:20:37;;;;;;;14.87;13.00;;;3.00;99.90;;;;;;4974069;28;20279;-54
2021/01/31 09:23:09;;;;;;;17.37;13.03;;;3.00;99.90;;;;;;4973855;28;20348;-54
2021/01/31 09:25:39;;;;;;;18.57;13.73;;;3.00;99.90;;;;;;4973961;28;20293;-57
2021/01/31 09:28:11;;;;;;;18.33;14.20;;;3.10;99.90;;;;;;4973634;28;20745;-57
2021/01/31 09:30:40;;;;;;;18.77;12.63;;;3.20;99.90;;;;;;4973646;28;20257;-57
2021/01/31 09:33:10;;;;;;;18.13;13.33;;;3.20;99.90;;;;;;4973557;28;20246;-59
2021/01/31 09:35:39;;;;;;;19.23;13.90;;;3.20;99.90;;;;;;4973638;28;20206;-58
2021/01/31 09:38:24;;;;;;;15.67;13.60;;;3.10;99.90;;;;;;4973473;28;20709;-58
2021/01/31 09:40:55;;;;;;;20.10;14.33;;;3.20;99.90;;;;;;4973399;28;20245;-57
2021/01/31 09:43:27;;;;;;;17.90;13.07;;;3.30;99.90;;;;;;4973261;28;20673;-61
2021/01/31 09:45:57;;;;;;;15.27;12.87;;;3.40;99.90;;;;;;4973421;28;20693;-60
2021/01/31 09:48:30;;;;;;;16.97;13.67;;;3.50;99.90;;;;;;4973411;28;20215;-60
2021/01/31 09:51:00;;;;;;;19.77;14.37;;;3.50;99.90;;;;;;4973458;28;20761;-60
2021/01/31 09:53:34;;;;;;;16.23;13.80;;;3.40;99.90;;;;;;4973286;28;20302;-57
2021/01/31 09:56:05;;;;;;;20.73;13.50;;;3.30;99.90;;;;;;4973219;28;20662;-59
2021/01/31 09:58:43;;;;;;;17.97;15.13;;;3.30;99.90;;;;;;4973190;28;20199;-58
2021/01/31 10:01:16;;;;;;;19.37;14.97;;;3.30;99.90;;;;;;4973039;28;20253;-59
2021/01/31 10:03:44;;;;;;;19.20;14.60;;;3.30;99.90;;;;;;4973025;28;20578;-59
2021/01/31 10:06:14;;;;;;;15.87;13.10;;;3.30;99.90;;;;;;4973009;28;20259;-60
2021/01/31 10:08:52;;;;;;;18.33;14.30;;;3.30;99.90;;;;;;4973025;28;20221;-57
2021/01/31 10:11:30;;;;;;;15.10;13.50;;;3.40;99.90;;;;;;4973385;28;20297;-50
2021/01/31 10:13:58;;;;;;;20.10;15.20;;;3.40;99.90;;;;;;4973149;28;20214;-51
2021/01/31 10:16:28;;;;;;;18.63;14.63;;;3.50;99.90;;;;;;4973013;28;20250;-47
2021/01/31 10:19:05;;;;;;;17.80;14.37;;;3.60;99.90;;;;;;4973032;28;20246;-45
2021/01/31 10:21:34;;;;;;;22.03;16.90;;;3.60;99.90;;;;;;4972709;28;20649;-50
2021/01/31 10:24:05;;;;;;;19.93;14.70;;;3.50;99.90;;;;;;4972770;28;20218;-51
2021/01/31 10:26:33;;;;;;;19.53;16.23;;;3.30;99.90;;;;;;4972992;28;20350;-55
2021/01/31 10:29:04;;;;;;;16.87;14.20;;;3.30;99.90;;;;;;4972916;28;20210;-62
2021/01/31 10:31:33;;;;;;;19.03;16.37;;;3.30;99.90;;;;;;4973036;28;20248;-59
2021/01/31 10:34:02;;;;;;;25.63;17.10;;;3.20;99.90;;;;;;4972653;28;20731;-62
2021/01/31 10:36:38;;;;;;;19.43;16.27;;;3.10;99.90;;;;;;4972946;28;20317;-61
2021/01/31 10:39:25;;;;;;;21.97;15.90;;;3.20;99.90;;;;;;4973179;28;20302;-60
2021/01/31 10:41:55;;;;;;;21.13;16.40;;;3.20;99.90;;;;;;4972927;28;20277;-60
2021/01/31 10:44:25;;;;;;;19.93;15.67;;;3.20;99.90;;;;;;4974937;28;20206;-62
2021/01/31 10:46:53;;;;;;;17.97;16.07;;;3.30;99.90;;;;;;4973101;28;20614;-62
2021/01/31 10:49:21;;;;;;;23.00;17.50;;;3.40;99.90;;;;;;4973083;28;20301;-61
2021/01/31 10:51:49;;;;;;;21.83;17.03;;;3.50;99.90;;;;;;4972839;28;20294;-58
2021/01/31 10:54:18;;;;;;;23.07;17.03;;;3.60;99.90;;;;;;4973719;28;20218;-50
2021/01/31 10:56:45;;;;;;;20.30;16.47;;;3.70;99.90;;;;;;4976414;28;20294;-59
2021/01/31 10:59:13;;;;;;;19.50;17.20;;;3.90;99.90;;;;;;4976665;28;20623;-61
2021/01/31 11:01:43;;;;;;;19.30;15.60;;;4.00;99.90;;;;;;4976247;28;20257;-59
2021/01/31 11:04:13;;;;;;;20.57;16.33;;;4.20;99.90;;;;;;4976222;28;20218;-61
2021/01/31 11:06:40;;;;;;;20.37;16.43;;;4.20;99.90;;;;;;4975660;28;20214;-53
2021/01/31 11:09:08;;;;;;;19.97;16.67;;;4.30;99.90;;;;;;4976166;28;20731;-54
2021/01/31 11:11:35;;;;;;;20.73;16.67;;;4.40;99.90;;;;;;4975774;28;20245;-51
2021/01/31 11:14:02;;;;;;;18.67;15.03;;;4.40;99.90;;;;;;4976157;28;20218;-53
2021/01/31 11:16:30;;;;;;;21.40;16.50;;;4.30;99.90;;;;;;4975733;28;20246;-53
2021/01/31 11:18:58;;;;;;;20.17;16.00;;;4.30;99.90;;;;;;4975651;28;20346;-49
2021/01/31 11:21:27;;;;;;;22.03;16.80;;;4.20;99.90;;;;;;4975811;28;20261;-52
2021/01/31 11:23:54;;;;;;;22.87;16.10;;;4.30;99.90;;;;;;4975624;28;20353;-54
2021/01/31 11:26:22;;;;;;;18.57;15.33;;;4.30;99.90;;;;;;4975641;28;20211;-54
2021/01/31 11:28:50;;;;;;;20.10;15.20;;;4.30;99.90;;;;;;4975683;28;20261;-56
2021/01/31 11:31:16;;;;;;;21.77;17.27;;;4.30;99.90;;;;;;4975623;28;20316;-52
2021/01/31 11:33:45;;;;;;;22.87;16.27;;;4.50;99.90;;;;;;4975874;28;20214;-52
2021/01/31 11:36:12;;;;;;;17.67;14.53;;;4.60;99.90;;;;;;4975412;28;20249;-53
2021/01/31 11:38:39;;;;;;;19.80;15.20;;;4.70;99.90;;;;;;4975275;28;20541;-48
2021/01/31 11:41:06;;;;;;;20.87;16.23;;;4.80;99.90;;;;;;4975748;28;20213;-50
2021/01/31 11:43:33;;;;;;;20.40;15.83;;;4.80;99.90;;;;;;4975550;28;20235;-55
2021/01/31 11:46:00;;;;;;;22.03;15.77;;;4.60;99.90;;;;;;4975551;28;20223;-51
2021/01/31 11:48:27;;;;;;;21.80;15.90;;;4.70;99.90;;;;;;4975432;28;20214;-56
2021/01/31 11:50:55;;;;;;;19.67;16.33;;;4.70;99.90;;;;;;4975197;28;20310;-58
2021/01/31 11:53:22;;;;;;;21.63;16.87;;;4.70;99.90;;;;;;4975088;28;20670;-56
2021/01/31 11:55:50;;;;;;;22.13;19.13;;;4.50;99.90;;;;;;4975437;28;20242;-54
2021/01/31 11:58:17;;;;;;;20.00;17.80;;;4.50;99.90;;;;;;4975304;28;20206;-59
2021/01/31 12:00:44;;;;;;;21.07;17.90;;;4.50;99.90;;;;;;4974970;28;20602;-57
2021/01/31 12:03:12;;;;;;;22.73;18.53;;;4.50;99.90;;;;;;4975380;28;20344;-60
2021/01/31 12:05:40;;;;;;;21.47;17.23;;;4.60;99.90;;;;;;4973693;28;20304;-60
2021/01/31 12:08:08;;;;;;;24.27;18.03;;;4.60;99.90;;;;;;4974948;28;20225;-59
2021/01/31 12:10:35;;;;;;;19.03;16.83;;;4.70;99.90;;;;;;4975234;28;20233;-60
2021/01/31 12:13:02;;;;;;;20.10;17.53;;;4.70;99.90;;;;;;4975107;28;20210;-59
2021/01/31 12:15:39;;;;;;;21.10;17.37;;;4.70;99.90;;;;;;4974729;28;20246;-59
2021/01/31 12:18:06;;;;;;;19.17;16.50;;;4.70;99.90;;;;;;4974675;28;20269;-51
2021/01/31 12:20:33;;;;;;;21.45;16.27;;;4.60;99.90;;;;;;4974749;28;20221;-54
2021/01/31 12:23:01;;;;;;;22.80;18.10;;;4.60;99.90;;;;;;4974849;28;20234;-57
2021/01/31 12:25:28;;;;;;;18.63;15.98;;;4.80;99.90;;;;;;4976624;28;20238;-54
2021/01/31 12:27:57;;;;;;;24.67;19.33;;;4.80;99.90;;;;;;4975034;28;20221;-54
2021/01/31 12:30:31;;;;;;;20.80;17.97;;;4.90;99.90;;;;;;4974647;28;20214;-56
2021/01/31 12:33:01;;;;;;;20.03;17.53;;;4.90;99.90;;;;;;4974576;28;20210;-57
2021/01/31 12:35:29;;;;;;;17.70;15.60;;;4.80;99.90;;;;;;4974628;28;20210;-55
2021/01/31 12:37:57;;;;;;;23.10;17.73;;;4.70;99.90;;;;;;4974733;28;20238;-54
2021/01/31 12:40:25;;;;;;;19.70;16.93;;;4.70;99.90;;;;;;4974312;28;20243;-57
2021/01/31 12:42:54;;;;;;;21.83;17.00;;;4.70;99.90;;;;;;4974377;28;20373;-57
2021/01/31 12:45:23;;;;;;;23.37;16.40;;;4.70;99.90;;;;;;4974495;28;20221;-55
2021/01/31 12:47:50;;;;;;;26.73;19.90;;;4.80;99.90;;;;;;4974424;28;20665;-58
2021/01/31 12:50:21;;;;;;;24.77;18.80;;;4.90;99.90;;;;;;4974203;28;20226;-54
2021/01/31 12:52:48;;;;;;;20.07;16.70;;;5.10;99.90;;;;;;4974196;28;20233;-58
2021/01/31 12:55:15;;;;;;;22.67;17.53;;;5.20;99.90;;;;;;4974023;28;20341;-52
2021/01/31 12:57:43;;;;;;;20.13;17.43;;;5.30;99.90;;;;;;4974316;28;20217;-52
2021/01/31 13:00:15;;;;;;;20.70;17.43;;;5.30;99.90;;;;;;4974110;28;20213;-52
2021/01/31 13:02:43;;;;;;;17.73;15.77;;;5.10;99.90;;;;;;4973828;28;20226;-55
2021/01/31 13:05:12;;;;;;;20.40;16.53;;;5.10;99.90;;;;;;4974019;28;20210;-54
2021/01/31 13:07:40;;;;;;;21.10;17.63;;;5.10;99.90;;;;;;4973861;28;20210;-57
2021/01/31 13:10:10;;;;;;;18.97;16.93;;;5.10;99.90;;;;;;4973783;28;20697;-56
2021/01/31 13:12:42;;;;;;;20.53;17.80;;;5.10;99.90;;;;;;4973842;28;20296;-58
2021/01/31 13:15:11;;;;;;;18.23;16.10;;;5.20;99.90;;;;;;4973515;28;20214;-57